Time;durP1;ratioP1;P1;durP2;ratioP2;P2;SDS_P1;SDS_P2;PMS_P1;PMS_P2;Temp;Humidity;BMP_temperature;BMP_pressure;BME280_temperature;BME280_humidity;BME280_pressure;Samples;Min_cycle;Max_cycle;Signal;HPM_P1;HPM_P2
2023/12/29 00:01:39;;;;;;;1999.90;999.90;;;9.90;99.90;;;;;;5058324;28;20881;-71
2023/12/29 00:04:06;;;;;;;1999.90;999.90;;;9.80;99.90;;;;;;5066880;28;20419;-71
2023/12/29 00:06:34;;;;;;;1999.90;999.90;;;9.90;99.90;;;;;;5068723;28;20407;-70
2023/12/29 00:09:00;;;;;;;1999.90;999.90;;;9.80;99.90;;;;;;5069905;28;20425;-74
2023/12/29 00:11:27;;;;;;;1999.90;999.90;;;9.80;99.90;;;;;;5079518;28;20461;-71
2023/12/29 00:13:54;;;;;;;1999.90;999.90;;;9.80;99.90;;;;;;5067776;28;20529;-72
2023/12/29 00:16:20;;;;;;;1999.90;999.90;;;9.80;99.90;;;;;;5065645;28;20447;-72
2023/12/29 00:18:47;;;;;;;1999.90;999.90;;;9.80;99.90;;;;;;5073255;28;20412;-69
2023/12/29 00:21:13;;;;;;;1999.90;999.90;;;9.80;99.90;;;;;;5074150;28;20462;-71
2023/12/29 00:23:41;;;;;;;1999.90;999.90;;;9.80;99.90;;;;;;5070481;28;20497;-72
2023/12/29 00:26:08;;;;;;;1999.90;999.90;;;9.70;99.90;;;;;;5069968;28;20461;-71
2023/12/29 00:28:36;;;;;;;1999.90;999.90;;;9.80;99.90;;;;;;5070032;28;20449;-71
2023/12/29 00:31:03;;;;;;;1999.90;999.90;;;9.80;99.90;;;;;;5071822;28;20416;-71
2023/12/29 00:33:31;;;;;;;1999.90;999.90;;;9.70;99.90;;;;;;5070290;28;20961;-71
2023/12/29 00:35:58;;;;;;;1999.90;999.90;;;9.80;99.90;;;;;;5070719;28;20463;-71
2023/12/29 00:38:26;;;;;;;1999.90;999.90;;;9.80;99.90;;;;;;5077146;28;20407;-71
2023/12/29 00:40:54;;;;;;;1999.90;999.90;;;9.80;99.90;;;;;;5069527;28;20864;-72
2023/12/29 00:43:22;;;;;;;1999.90;999.90;;;9.80;99.90;;;;;;5073210;28;20414;-71
2023/12/29 00:45:49;;;;;;;1999.90;999.90;;;9.90;99.90;;;;;;5070348;28;20828;-71
2023/12/29 00:48:16;;;;;;;1999.90;999.90;;;9.90;99.90;;;;;;5073486;28;20423;-71
2023/12/29 00:50:43;;;;;;;1999.90;999.90;;;9.90;99.90;;;;;;5079026;28;20445;-72
2023/12/29 00:53:09;;;;;;;1999.90;999.90;;;9.90;99.90;;;;;;5069850;28;20812;-71
2023/12/29 00:55:36;;;;;;;1999.90;999.90;;;10.00;99.90;;;;;;5070733;28;20420;-72
2023/12/29 00:58:04;;;;;;;1999.90;999.90;;;9.90;99.90;;;;;;5070751;28;20485;-71
2023/12/29 01:00:31;;;;;;;1999.90;999.90;;;9.90;99.90;;;;;;5076266;28;20430;-71
2023/12/29 01:02:57;;;;;;;1999.90;999.90;;;9.90;99.90;;;;;;5078159;28;20415;-72
2023/12/29 01:05:24;;;;;;;1999.90;999.90;;;9.90;99.90;;;;;;5081191;28;20449;-71
2023/12/29 01:07:51;;;;;;;1999.90;999.90;;;9.80;99.90;;;;;;5073505;28;20901;-72
2023/12/29 01:10:17;;;;;;;1999.90;999.90;;;9.90;99.90;;;;;;5076892;28;20504;-71
2023/12/29 01:12:44;;;;;;;1999.90;999.90;;;9.90;99.90;;;;;;5077628;28;20442;-71
2023/12/29 01:15:12;;;;;;;1999.90;999.90;;;10.00;99.90;;;;;;5073250;28;20442;-71
2023/12/29 01:17:39;;;;;;;1999.90;999.90;;;10.00;99.90;;;;;;5080741;28;20423;-70
2023/12/29 01:20:06;;;;;;;1999.90;999.90;;;10.00;99.90;;;;;;5073861;28;20415;-72
2023/12/29 01:22:33;;;;;;;1999.90;999.90;;;10.00;99.90;;;;;;5070492;28;20510;-71
2023/12/29 01:25:00;;;;;;;1999.90;999.90;;;10.00;99.90;;;;;;5079526;28;20420;-71
2023/12/29 01:27:27;;;;;;;1999.90;999.90;;;10.00;99.90;;;;;;5073628;28;20897;-71
2023/12/29 01:29:54;;;;;;;1999.90;999.90;;;10.00;99.90;;;;;;5080441;28;20452;-74
2023/12/29 01:32:22;;;;;;;1999.90;999.90;;;10.00;99.90;;;;;;5080615;28;20419;-71
2023/12/29 01:34:48;;;;;;;1999.90;999.90;;;9.90;99.90;;;;;;5068197;28;20480;-72
2023/12/29 01:37:15;;;;;;;1999.90;999.90;;;9.90;99.90;;;;;;5079974;28;20485;-71
2023/12/29 01:39:42;;;;;;;1999.90;999.90;;;9.90;99.90;;;;;;5079605;28;20459;-71
2023/12/29 01:42:10;;;;;;;1999.90;999.90;;;9.80;99.90;;;;;;5079161;28;20512;-72
2023/12/29 01:44:37;;;;;;;1999.90;999.90;;;9.80;99.90;;;;;;5080083;28;20411;-72
2023/12/29 01:47:11;;;;;;;1999.90;999.90;;;9.80;99.90;;;;;;5072661;28;20423;-71
2023/12/29 01:49:39;;;;;;;1999.90;999.90;;;9.80;99.90;;;;;;5075350;28;20942;-71
2023/12/29 01:52:07;;;;;;;1999.90;999.90;;;9.80;99.90;;;;;;5077056;28;20408;-71
2023/12/29 01:54:37;;;;;;;1999.90;999.90;;;9.80;99.90;;;;;;5082935;28;20402;-71
2023/12/29 01:57:05;;;;;;;1999.90;999.90;;;9.80;99.90;;;;;;5078920;28;20497;-72
2023/12/29 01:59:33;;;;;;;1999.90;999.90;;;9.80;99.90;;;;;;5068896;28;20789;-71
2023/12/29 02:01:59;;;;;;;1999.90;999.90;;;9.80;99.90;;;;;;5066103;28;20418;-68
2023/12/29 02:04:27;;;;;;;1999.90;999.90;;;9.90;99.90;;;;;;5082594;28;20414;-71
2023/12/29 02:06:56;;;;;;;1999.90;999.90;;;9.80;99.90;;;;;;5078980;28;20448;-71
2023/12/29 02:09:23;;;;;;;1999.90;999.90;;;9.90;99.90;;;;;;5080023;28;20437;-71
2023/12/29 02:11:49;;;;;;;1999.90;999.90;;;9.90;99.90;;;;;;5069370;28;20424;-71
2023/12/29 02:14:17;;;;;;;1999.90;999.90;;;9.90;99.90;;;;;;5075916;28;20411;-70
2023/12/29 02:16:51;;;;;;;1999.90;999.90;;;9.80;99.90;;;;;;5075510;28;20410;-72
2023/12/29 02:19:28;;;;;;;1999.90;999.90;;;9.90;99.90;;;;;;5075210;28;20821;-71
2023/12/29 02:21:56;;;;;;;1999.90;999.90;;;9.90;99.90;;;;;;5078698;28;20493;-72
2023/12/29 02:24:22;;;;;;;1999.90;999.90;;;9.90;99.90;;;;;;5066957;28;21186;-71
2023/12/29 02:26:58;;;;;;;1999.90;999.90;;;9.90;99.90;;;;;;5064131;28;20433;-71
2023/12/29 02:29:27;;;;;;;1999.90;999.90;;;9.90;99.90;;;;;;5074977;28;20506;-71
2023/12/29 02:31:59;;;;;;;1999.90;999.90;;;10.00;99.90;;;;;;5077152;28;20477;-71
2023/12/29 02:34:27;;;;;;;1999.90;999.90;;;9.90;99.90;;;;;;5084509;28;20440;-72
2023/12/29 02:36:54;;;;;;;1999.90;999.90;;;10.00;99.90;;;;;;5079920;28;20404;-71
2023/12/29 02:39:21;;;;;;;1999.90;999.90;;;10.00;99.90;;;;;;5072554;28;20431;-71
2023/12/29 02:41:48;;;;;;;1999.90;999.90;;;10.00;99.90;;;;;;5064653;28;20564;-73
2023/12/29 02:44:16;;;;;;;1999.90;999.90;;;10.00;99.90;;;;;;5080180;28;20827;-69
2023/12/29 02:46:42;;;;;;;1999.90;999.90;;;10.10;99.90;;;;;;5080095;28;20451;-71
2023/12/29 02:49:12;;;;;;;1999.90;999.90;;;10.10;99.90;;;;;;5072883;28;21020;-71
2023/12/29 02:51:39;;;;;;;1999.90;999.90;;;10.10;99.90;;;;;;5076815;28;20726;-71
2023/12/29 02:54:07;;;;;;;1999.90;999.90;;;10.20;99.90;;;;;;5065106;28;20417;-71
2023/12/29 02:56:34;;;;;;;1999.90;999.90;;;10.20;99.90;;;;;;5078112;28;20445;-72
2023/12/29 02:59:00;;;;;;;1999.90;999.90;;;10.20;99.90;;;;;;5070886;28;20473;-71
2023/12/29 03:01:28;;;;;;;1999.90;999.90;;;10.10;99.90;;;;;;5071789;28;20407;-71
2023/12/29 03:03:56;;;;;;;1999.90;999.90;;;10.10;99.90;;;;;;5070701;28;20463;-72
2023/12/29 03:06:23;;;;;;;1999.90;999.90;;;10.20;99.90;;;;;;5070698;28;20966;-70
2023/12/29 03:08:49;;;;;;;1999.90;999.90;;;10.20;99.90;;;;;;5077532;28;20442;-71
2023/12/29 03:11:16;;;;;;;1999.90;999.90;;;10.20;99.90;;;;;;5076178;28;20457;-71
2023/12/29 03:13:43;;;;;;;1999.90;999.90;;;10.20;99.90;;;;;;5076566;28;20430;-71
2023/12/29 03:16:10;;;;;;;1999.90;999.90;;;10.10;99.90;;;;;;5072755;28;20466;-71
2023/12/29 03:18:39;;;;;;;1999.90;999.90;;;10.10;99.90;;;;;;5067984;28;20912;-71
2023/12/29 03:21:07;;;;;;;1999.90;999.90;;;10.00;99.90;;;;;;5073611;28;20953;-71
2023/12/29 03:23:34;;;;;;;1999.90;999.90;;;10.00;99.90;;;;;;5074977;28;20811;-71
2023/12/29 03:26:00;;;;;;;1999.90;999.90;;;9.90;99.90;;;;;;5070981;28;20438;-72
2023/12/29 03:28:27;;;;;;;1999.90;999.90;;;10.00;99.90;;;;;;5069486;28;20427;-71
2023/12/29 03:30:53;;;;;;;1999.90;999.90;;;10.00;99.90;;;;;;5060012;28;20962;-72
2023/12/29 03:33:20;;;;;;;1999.90;999.90;;;10.00;99.90;;;;;;5073644;28;20469;-69
2023/12/29 03:35:48;;;;;;;1999.90;999.90;;;10.00;99.90;;;;;;5074287;28;20465;-72
2023/12/29 03:38:15;;;;;;;1999.90;999.90;;;10.10;99.90;;;;;;5081930;28;20855;-71
2023/12/29 03:40:42;;;;;;;1999.90;999.90;;;10.00;99.90;;;;;;5075289;28;20436;-69
2023/12/29 03:43:08;;;;;;;1999.90;999.90;;;9.90;99.90;;;;;;5064371;28;20409;-71
2023/12/29 03:45:35;;;;;;;1999.90;999.90;;;9.90;99.90;;;;;;5074912;28;20410;-71
2023/12/29 03:48:01;;;;;;;1999.90;999.90;;;9.80;99.90;;;;;;5069996;28;20978;-70
2023/12/29 03:50:28;;;;;;;1999.90;999.90;;;9.70;99.90;;;;;;5075632;28;20423;-71
2023/12/29 03:52:56;;;;;;;1999.90;999.90;;;9.60;99.90;;;;;;5069618;28;20489;-71
2023/12/29 03:55:23;;;;;;;1999.90;999.90;;;9.60;99.90;;;;;;5069813;28;20415;-70
2023/12/29 03:57:49;;;;;;;1999.90;999.90;;;9.60;99.90;;;;;;5073389;28;20463;-71
2023/12/29 04:00:16;;;;;;;1999.90;999.90;;;9.60;99.90;;;;;;5076410;28;20411;-71
2023/12/29 04:02:43;;;;;;;1999.90;999.90;;;9.60;99.90;;;;;;5076026;28;20409;-69
2023/12/29 04:05:10;;;;;;;1999.90;999.90;;;9.60;99.90;;;;;;5071738;28;20480;-71
2023/12/29 04:07:37;;;;;;;1999.90;999.90;;;9.60;99.90;;;;;;5069549;28;20413;-71
2023/12/29 04:10:06;;;;;;;1999.90;999.90;;;9.70;99.90;;;;;;5075035;28;20428;-68
2023/12/29 04:12:32;;;;;;;1999.90;999.90;;;9.70;99.90;;;;;;5074600;28;20455;-71
2023/12/29 04:14:59;;;;;;;1999.90;999.90;;;9.80;99.90;;;;;;5073593;28;20419;-72
2023/12/29 04:17:25;;;;;;;1999.90;999.90;;;9.70;99.90;;;;;;5067717;28;20432;-69
2023/12/29 04:19:52;;;;;;;1999.90;999.90;;;9.70;99.90;;;;;;5066827;28;20881;-71
2023/12/29 04:22:19;;;;;;;1999.90;999.90;;;9.80;99.90;;;;;;5078662;28;20520;-72
2023/12/29 04:24:46;;;;;;;1999.90;999.90;;;9.80;99.90;;;;;;5081305;28;20765;-71
2023/12/29 04:27:15;;;;;;;1999.90;999.90;;;9.70;99.90;;;;;;5070312;28;20464;-70
2023/12/29 04:29:41;;;;;;;1999.90;999.90;;;9.70;99.90;;;;;;5066641;28;20483;-72
2023/12/29 04:32:08;;;;;;;1999.90;999.90;;;9.50;99.90;;;;;;5070549;28;20411;-69
2023/12/29 04:34:35;;;;;;;1999.90;999.90;;;9.50;99.90;;;;;;5078802;28;20487;-71
2023/12/29 04:37:01;;;;;;;1999.90;999.90;;;9.40;99.90;;;;;;5072984;28;20412;-70
2023/12/29 04:39:28;;;;;;;1999.90;999.90;;;9.50;99.90;;;;;;5070829;28;20403;-72
2023/12/29 04:41:55;;;;;;;1999.90;999.90;;;9.60;99.90;;;;;;5069500;28;20447;-72
2023/12/29 04:44:23;;;;;;;1999.90;999.90;;;9.50;99.90;;;;;;5075699;28;20415;-72
2023/12/29 04:46:49;;;;;;;1999.90;999.90;;;9.60;99.90;;;;;;5077381;28;20920;-71
2023/12/29 04:49:16;;;;;;;1999.90;999.90;;;9.50;99.90;;;;;;5070569;28;20844;-72
2023/12/29 04:51:42;;;;;;;1999.90;999.90;;;9.50;99.90;;;;;;5069370;28;20409;-71
2023/12/29 04:54:09;;;;;;;1999.90;999.90;;;9.50;99.90;;;;;;5069545;28;20485;-69
2023/12/29 04:56:36;;;;;;;1999.90;999.90;;;9.50;99.90;;;;;;5085266;28;20414;-72
2023/12/29 04:59:02;;;;;;;1999.90;999.90;;;9.60;99.90;;;;;;5080467;28;20459;-71
2023/12/29 05:01:30;;;;;;;1999.90;999.90;;;9.50;99.90;;;;;;5069652;28;20414;-70
2023/12/29 05:03:57;;;;;;;1999.90;999.90;;;9.50;99.90;;;;;;5076719;28;20430;-69
2023/12/29 05:06:24;;;;;;;1999.90;999.90;;;9.50;99.90;;;;;;5073121;28;20511;-70
2023/12/29 05:08:50;;;;;;;1999.90;999.90;;;9.50;99.90;;;;;;5077574;28;20902;-69
2023/12/29 05:11:17;;;;;;;1999.90;999.90;;;9.40;99.90;;;;;;5078250;28;20423;-70
2023/12/29 05:13:44;;;;;;;1999.90;999.90;;;9.40;99.90;;;;;;5071867;28;20412;-69
2023/12/29 05:16:11;;;;;;;1999.90;999.90;;;9.40;99.90;;;;;;5074596;28;20494;-68
2023/12/29 05:18:38;;;;;;;1999.90;999.90;;;9.40;99.90;;;;;;5074059;28;20834;-69
2023/12/29 05:21:06;;;;;;;1999.90;999.90;;;9.30;99.90;;;;;;5085084;28;20463;-69
2023/12/29 05:23:33;;;;;;;1999.90;999.90;;;9.30;99.90;;;;;;5062816;28;20411;-70
2023/12/29 05:25:59;;;;;;;1999.90;999.90;;;9.30;99.90;;;;;;5071710;28;20414;-71
2023/12/29 05:28:27;;;;;;;1999.90;999.90;;;9.40;99.90;;;;;;5077656;28;20410;-69
2023/12/29 05:30:53;;;;;;;1999.90;999.90;;;9.50;99.90;;;;;;5073612;28;20526;-69
2023/12/29 05:33:20;;;;;;;1999.90;999.90;;;9.40;99.90;;;;;;5077985;28;20781;-71
2023/12/29 05:35:48;;;;;;;1999.90;999.90;;;9.50;99.90;;;;;;5069133;28;20889;-70
2023/12/29 05:38:14;;;;;;;1999.90;999.90;;;9.40;99.90;;;;;;5069868;28;20408;-69
2023/12/29 05:40:41;;;;;;;1999.90;999.90;;;9.40;99.90;;;;;;5070878;28;20411;-68
2023/12/29 05:43:08;;;;;;;1999.90;999.90;;;9.50;99.90;;;;;;5074445;28;20416;-70
2023/12/29 05:45:34;;;;;;;1999.90;999.90;;;9.50;99.90;;;;;;5066759;28;20489;-70
2023/12/29 05:48:01;;;;;;;1999.90;999.90;;;9.50;99.90;;;;;;5074499;28;20416;-70
2023/12/29 05:50:27;;;;;;;1999.90;999.90;;;9.50;99.90;;;;;;5077036;28;20426;-70
2023/12/29 05:52:55;;;;;;;1999.90;999.90;;;9.50;99.90;;;;;;5081251;28;20407;-72
2023/12/29 05:55:22;;;;;;;1999.90;999.90;;;9.50;99.90;;;;;;5076411;28;20945;-70
2023/12/29 05:57:49;;;;;;;1999.90;999.90;;;9.30;99.90;;;;;;5074350;28;20412;-70
2023/12/29 06:00:16;;;;;;;1999.90;999.90;;;9.20;99.90;;;;;;5072066;28;20404;-69
2023/12/29 06:02:43;;;;;;;1999.90;999.90;;;9.20;99.90;;;;;;5077412;28;20468;-71
2023/12/29 06:05:11;;;;;;;1999.90;999.90;;;9.30;99.90;;;;;;5079605;28;20498;-70
2023/12/29 06:07:38;;;;;;;1999.90;999.90;;;9.40;99.90;;;;;;5077057;28;20432;-70
2023/12/29 06:10:08;;;;;;;1999.90;999.90;;;9.30;99.90;;;;;;5071801;28;20484;-68
2023/12/29 06:12:34;;;;;;;1999.90;999.90;;;9.40;99.90;;;;;;5076440;28;20408;-70
2023/12/29 06:15:01;;;;;;;1999.90;999.90;;;9.40;99.90;;;;;;5078423;28;20410;-70
2023/12/29 06:17:28;;;;;;;1999.90;999.90;;;9.50;99.90;;;;;;5071528;28;20447;-70
2023/12/29 06:19:54;;;;;;;1999.90;999.90;;;9.50;99.90;;;;;;5071190;28;20407;-70
2023/12/29 06:22:21;;;;;;;1999.90;999.90;;;9.50;99.90;;;;;;5074897;28;20843;-70
2023/12/29 06:24:48;;;;;;;1999.90;999.90;;;9.40;99.90;;;;;;5076527;28;20779;-69
2023/12/29 06:27:17;;;;;;;1999.90;999.90;;;9.40;99.90;;;;;;5079887;28;20465;-70
2023/12/29 06:29:43;;;;;;;1999.90;999.90;;;9.40;99.90;;;;;;5075956;28;20422;-68
2023/12/29 06:32:10;;;;;;;1999.90;999.90;;;9.40;99.90;;;;;;5070524;28;21082;-68
2023/12/29 06:34:37;;;;;;;1999.90;999.90;;;9.40;99.90;;;;;;5078549;28;20483;-71
2023/12/29 06:37:04;;;;;;;1999.90;999.90;;;9.30;99.90;;;;;;5080335;28;20414;-70
2023/12/29 06:39:30;;;;;;;1999.90;999.90;;;9.30;99.90;;;;;;5079577;28;20477;-70
2023/12/29 06:41:57;;;;;;;1999.90;999.90;;;9.40;99.90;;;;;;5070821;28;20431;-72
2023/12/29 06:44:25;;;;;;;1999.90;999.90;;;9.40;99.90;;;;;;5071264;28;20473;-70
2023/12/29 06:46:51;;;;;;;1999.90;999.90;;;9.50;99.90;;;;;;5076925;28;20473;-70
2023/12/29 06:49:18;;;;;;;1999.90;999.90;;;9.50;99.90;;;;;;5078409;28;20408;-70
2023/12/29 06:51:45;;;;;;;1999.90;999.90;;;9.60;99.90;;;;;;5079909;28;20480;-70
2023/12/29 06:54:12;;;;;;;1999.90;999.90;;;9.60;99.90;;;;;;5071952;28;20431;-71
2023/12/29 06:56:38;;;;;;;1999.90;999.90;;;9.70;99.90;;;;;;5073526;28;20410;-69
2023/12/29 06:59:05;;;;;;;1999.90;999.90;;;9.70;99.90;;;;;;5076969;28;20410;-70
2023/12/29 07:01:33;;;;;;;1999.90;999.90;;;9.80;99.90;;;;;;5078916;28;20465;-71
2023/12/29 07:04:00;;;;;;;1999.90;999.90;;;9.80;99.90;;;;;;5071479;28;20416;-70
2023/12/29 07:06:26;;;;;;;1999.90;999.90;;;9.90;99.90;;;;;;5072009;28;20439;-71
2023/12/29 07:08:53;;;;;;;1999.90;999.90;;;9.90;99.90;;;;;;5074035;28;20753;-70
2023/12/29 07:11:20;;;;;;;1999.90;999.90;;;9.90;99.90;;;;;;5077744;28;20458;-70
2023/12/29 07:13:46;;;;;;;1999.90;999.90;;;9.80;99.90;;;;;;5081686;28;20408;-70
2023/12/29 07:16:13;;;;;;;1999.90;999.90;;;9.80;99.90;;;;;;5069341;28;20427;-70
2023/12/29 07:18:42;;;;;;;1999.90;999.90;;;9.80;99.90;;;;;;5071047;28;20843;-70
2023/12/29 07:21:08;;;;;;;1999.90;999.90;;;9.80;99.90;;;;;;5079774;28;20789;-66
2023/12/29 07:23:35;;;;;;;1999.90;999.90;;;9.80;99.90;;;;;;5091029;28;20417;-69
2023/12/29 07:26:02;;;;;;;1999.90;999.90;;;9.80;99.90;;;;;;5072881;28;20437;-68
2023/12/29 07:28:28;;;;;;;1999.90;999.90;;;9.80;99.90;;;;;;5067587;28;20467;-70
2023/12/29 07:30:55;;;;;;;1999.90;999.90;;;9.80;99.90;;;;;;5090824;28;20425;-70
2023/12/29 07:33:23;;;;;;;1999.90;999.90;;;9.90;99.90;;;;;;5090948;28;20410;-70
2023/12/29 07:35:51;;;;;;;1999.90;999.90;;;9.90;99.90;;;;;;5074740;28;20432;-70
2023/12/29 07:38:18;;;;;;;1999.90;999.90;;;10.00;99.90;;;;;;5079421;28;20407;-71
2023/12/29 07:40:45;;;;;;;1999.90;999.90;;;10.00;99.90;;;;;;5091029;28;20436;-69
2023/12/29 07:43:11;;;;;;;1999.90;999.90;;;9.90;99.90;;;;;;5070091;28;20896;-68
2023/12/29 07:45:38;;;;;;;1999.90;999.90;;;9.90;99.90;;;;;;5067591;28;20436;-69
2023/12/29 07:48:06;;;;;;;1999.90;999.90;;;10.00;99.90;;;;;;5078800;28;20406;-71
2023/12/29 07:50:32;;;;;;;1999.90;999.90;;;10.00;99.90;;;;;;5090607;28;20472;-67
2023/12/29 07:53:02;;;;;;;1999.90;999.90;;;10.10;99.90;;;;;;5090615;28;20418;-66
2023/12/29 07:55:29;;;;;;;1999.90;999.90;;;10.10;99.90;;;;;;5077820;28;20430;-68
2023/12/29 07:57:56;;;;;;;1999.90;999.90;;;10.00;99.90;;;;;;5072556;28;20489;-69
2023/12/29 08:00:23;;;;;;;1999.90;999.90;;;10.00;99.90;;;;;;5071241;28;20449;-70
2023/12/29 08:02:49;;;;;;;1999.90;999.90;;;10.10;99.90;;;;;;5067909;28;20481;-68
2023/12/29 08:05:16;;;;;;;1999.90;999.90;;;10.00;99.90;;;;;;5068840;28;20439;-70
2023/12/29 08:07:44;;;;;;;1999.90;999.90;;;10.00;99.90;;;;;;5072997;28;20406;-68
2023/12/29 08:10:12;;;;;;;1999.90;999.90;;;10.00;99.90;;;;;;5074044;28;20412;-70
2023/12/29 08:12:38;;;;;;;1999.90;999.90;;;10.00;99.90;;;;;;5073582;28;20412;-66
2023/12/29 08:15:06;;;;;;;1999.90;999.90;;;10.00;99.90;;;;;;5069666;28;20407;-70
2023/12/29 08:17:33;;;;;;;1999.90;999.90;;;10.00;99.90;;;;;;5070119;28;20419;-70
2023/12/29 08:20:00;;;;;;;1999.90;999.90;;;10.00;99.90;;;;;;5072013;28;20821;-68
2023/12/29 08:22:30;;;;;;;1999.90;999.90;;;10.00;99.90;;;;;;5068312;28;20485;-70
2023/12/29 08:24:56;;;;;;;1999.90;999.90;;;10.00;99.90;;;;;;5068113;28;20484;-69
2023/12/29 08:27:26;;;;;;;1999.90;999.90;;;10.10;99.90;;;;;;5067365;28;22163;-70
2023/12/29 08:29:53;;;;;;;1999.90;999.90;;;10.10;99.90;;;;;;5067394;28;20957;-70
2023/12/29 08:32:20;;;;;;;1999.90;999.90;;;10.10;99.90;;;;;;5071971;28;20872;-70
2023/12/29 08:34:47;;;;;;;1999.90;999.90;;;10.10;99.90;;;;;;5074105;28;20438;-71
2023/12/29 08:37:19;;;;;;;1999.90;999.90;;;10.10;99.90;;;;;;5076911;28;20473;-68
2023/12/29 08:39:46;;;;;;;1999.90;999.90;;;10.20;99.90;;;;;;5075009;28;20521;-69
2023/12/29 08:42:13;;;;;;;1999.90;999.90;;;10.20;99.90;;;;;;5066581;28;20423;-69
2023/12/29 08:44:41;;;;;;;1999.90;999.90;;;10.30;99.90;;;;;;5067418;28;20465;-70
2023/12/29 08:47:08;;;;;;;1999.90;999.90;;;10.30;99.90;;;;;;5068802;28;20937;-67
2023/12/29 08:49:34;;;;;;;1999.90;999.90;;;10.40;99.90;;;;;;5069496;28;20412;-69
2023/12/29 08:52:01;;;;;;;1999.90;999.90;;;10.50;99.90;;;;;;5075509;28;20821;-69
2023/12/29 08:54:28;;;;;;;1999.90;999.90;;;10.50;99.90;;;;;;5069337;28;20419;-69
2023/12/29 08:56:54;;;;;;;1999.90;999.90;;;10.50;99.90;;;;;;5071812;28;20491;-67
2023/12/29 08:59:21;;;;;;;1999.90;999.90;;;10.70;99.90;;;;;;5073975;28;20435;-67
2023/12/29 09:01:49;;;;;;;1999.90;999.90;;;10.70;99.90;;;;;;5084877;28;20467;-69
2023/12/29 09:04:16;;;;;;;1999.90;999.90;;;10.70;99.90;;;;;;5069697;28;20408;-69
2023/12/29 09:06:43;;;;;;;1999.90;999.90;;;10.70;99.90;;;;;;5071888;28;20416;-69
2023/12/29 09:09:12;;;;;;;1999.90;999.90;;;10.70;99.90;;;;;;5069878;28;20522;-69
2023/12/29 09:11:39;;;;;;;1999.90;999.90;;;10.80;99.90;;;;;;5071526;28;20459;-70
2023/12/29 09:14:05;;;;;;;1999.90;999.90;;;10.80;99.90;;;;;;5068792;28;20893;-68
2023/12/29 09:16:32;;;;;;;1999.90;999.90;;;11.00;99.90;;;;;;5076273;28;20419;-67
2023/12/29 09:19:00;;;;;;;1999.90;999.90;;;11.10;99.90;;;;;;5069230;28;20411;-67
2023/12/29 09:21:27;;;;;;;1999.90;999.90;;;11.20;99.90;;;;;;5069608;28;20488;-66
2023/12/29 09:23:53;;;;;;;1999.90;999.90;;;11.30;99.90;;;;;;5071304;28;20435;-65
2023/12/29 09:26:20;;;;;;;1999.90;999.90;;;11.30;99.90;;;;;;5067470;28;20953;-67
2023/12/29 09:28:48;;;;;;;1999.90;999.90;;;11.20;99.90;;;;;;5078259;28;20410;-69
2023/12/29 09:31:15;;;;;;;1999.90;999.90;;;11.20;99.90;;;;;;5073471;28;20840;-70
2023/12/29 09:33:42;;;;;;;1999.90;999.90;;;11.20;99.90;;;;;;5074672;28;20423;-65
2023/12/29 09:36:10;;;;;;;1999.90;999.90;;;11.30;99.90;;;;;;5074645;28;20462;-68
2023/12/29 09:38:37;;;;;;;1999.90;999.90;;;11.40;99.90;;;;;;5072736;28;20453;-70
2023/12/29 09:41:09;;;;;;;1999.90;999.90;;;11.30;99.90;;;;;;5071779;28;20450;-68
2023/12/29 09:43:37;;;;;;;1999.90;999.90;;;11.30;99.90;;;;;;5069266;28;20480;-68
2023/12/29 09:46:04;;;;;;;1999.90;999.90;;;11.20;99.90;;;;;;5071547;28;20428;-69
2023/12/29 09:48:34;;;;;;;1999.90;999.90;;;11.00;99.90;;;;;;5072756;28;20415;-67
2023/12/29 09:51:01;;;;;;;1999.90;999.90;;;11.10;99.90;;;;;;5075528;28;20450;-69
2023/12/29 09:53:31;;;;;;;1999.90;999.90;;;11.10;99.90;;;;;;5071704;28;20459;-66
2023/12/29 09:56:01;;;;;;;1999.90;999.90;;;11.10;99.90;;;;;;5073442;28;20477;-67
2023/12/29 09:58:27;;;;;;;1999.90;999.90;;;11.00;99.90;;;;;;5074045;28;20416;-67
2023/12/29 10:00:54;;;;;;;1999.90;999.90;;;11.00;99.90;;;;;;5075122;28;20424;-67
2023/12/29 10:03:21;;;;;;;1999.90;999.90;;;10.80;99.90;;;;;;5072240;28;20477;-66
2023/12/29 10:05:52;;;;;;;1999.90;999.90;;;10.80;99.90;;;;;;5072869;28;20404;-67
2023/12/29 10:08:20;;;;;;;1999.90;999.90;;;10.80;99.90;;;;;;5073279;28;20469;-67
2023/12/29 10:10:49;;;;;;;1999.90;999.90;;;10.70;99.90;;;;;;5069480;28;20431;-65
2023/12/29 10:13:18;;;;;;;1999.90;999.90;;;10.60;99.90;;;;;;5071096;28;21015;-69
2023/12/29 10:15:51;;;;;;;1999.90;999.90;;;10.60;99.90;;;;;;5070136;28;20458;-70
2023/12/29 10:18:23;;;;;;;1999.90;999.90;;;10.60;99.90;;;;;;5065472;28;20459;-67
2023/12/29 10:20:57;;;;;;;1999.90;999.90;;;10.70;99.90;;;;;;5074255;28;20415;-67
2023/12/29 10:23:29;;;;;;;1999.90;999.90;;;10.80;99.90;;;;;;5078867;28;20499;-67
2023/12/29 10:25:58;;;;;;;1999.90;999.90;;;10.80;99.90;;;;;;5071136;28;20489;-67
2023/12/29 10:28:24;;;;;;;1999.90;999.90;;;10.60;99.90;;;;;;5073127;28;20423;-67
2023/12/29 10:30:51;;;;;;;1999.90;999.90;;;10.70;99.90;;;;;;5072701;28;20469;-66
2023/12/29 10:33:21;;;;;;;1999.90;999.90;;;10.70;99.90;;;;;;5081098;28;20460;-67
2023/12/29 10:35:57;;;;;;;1999.90;999.90;;;10.60;99.90;;;;;;5071424;28;20428;-70
2023/12/29 10:38:24;;;;;;;1999.90;999.90;;;10.70;99.90;;;;;;5072295;28;20430;-69
2023/12/29 10:40:51;;;;;;;1999.90;999.90;;;10.50;99.90;;;;;;5070816;28;20431;-69
2023/12/29 10:43:24;;;;;;;1999.90;999.90;;;10.60;99.90;;;;;;5071503;28;20415;-69
2023/12/29 10:46:07;;;;;;;1999.90;999.90;;;10.70;99.90;;;;;;5074210;28;20465;-68
2023/12/29 10:48:34;;;;;;;1999.90;999.90;;;10.80;99.90;;;;;;5069116;28;20427;-67
2023/12/29 10:51:03;;;;;;;1999.90;999.90;;;10.90;99.90;;;;;;5070832;28;20439;-68
2023/12/29 10:53:30;;;;;;;1999.90;999.90;;;11.00;99.90;;;;;;5077983;28;20462;-66
2023/12/29 10:55:58;;;;;;;1999.90;999.90;;;11.00;99.90;;;;;;5070664;28;20859;-69
2023/12/29 10:58:29;;;;;;;1999.90;999.90;;;10.90;99.90;;;;;;5072473;28;20446;-69
2023/12/29 11:00:55;;;;;;;1999.90;999.90;;;10.70;99.90;;;;;;5070578;28;20512;-69
2023/12/29 11:03:23;;;;;;;1999.90;999.90;;;10.80;99.90;;;;;;5070560;28;20444;-68
2023/12/29 11:05:50;;;;;;;1999.90;999.90;;;10.80;99.90;;;;;;5077475;28;20418;-68
2023/12/29 11:08:17;;;;;;;1999.90;999.90;;;10.80;99.90;;;;;;5091270;28;20942;-66
2023/12/29 11:10:44;;;;;;;1999.90;999.90;;;10.80;99.90;;;;;;5072603;28;20523;-69
2023/12/29 11:13:13;;;;;;;1999.90;999.90;;;10.80;99.90;;;;;;5067676;28;20435;-69
2023/12/29 11:15:44;;;;;;;1999.90;999.90;;;10.80;99.90;;;;;;5073497;28;20415;-71
2023/12/29 11:18:14;;;;;;;1999.90;999.90;;;10.70;99.90;;;;;;5068789;28;20432;-69
2023/12/29 11:20:41;;;;;;;1999.90;999.90;;;10.70;99.90;;;;;;5071125;28;20435;-67
2023/12/29 11:23:09;;;;;;;1999.90;999.90;;;10.70;99.90;;;;;;5072196;28;20960;-69
2023/12/29 11:25:36;;;;;;;1999.90;999.90;;;10.80;99.90;;;;;;5068824;28;20420;-69
2023/12/29 11:28:03;;;;;;;1999.90;999.90;;;10.60;99.90;;;;;;5073185;28;20840;-69
2023/12/29 11:30:30;;;;;;;1999.90;999.90;;;10.60;99.90;;;;;;5070524;28;20499;-69
2023/12/29 11:33:04;;;;;;;1999.90;999.90;;;10.60;99.90;;;;;;5074171;28;20420;-69
2023/12/29 11:35:34;;;;;;;1999.90;999.90;;;10.70;99.90;;;;;;5069932;28;20477;-69
2023/12/29 11:38:27;;;;;;;1999.90;999.90;;;10.70;99.90;;;;;;5069464;28;20420;-70
2023/12/29 11:41:01;;;;;;;1999.90;999.90;;;10.80;99.90;;;;;;5069025;28;20412;-69
2023/12/29 11:43:29;;;;;;;1999.90;999.90;;;10.80;99.90;;;;;;5079081;28;20401;-69
2023/12/29 11:45:55;;;;;;;1999.90;999.90;;;10.70;99.90;;;;;;5073000;28;20481;-70
2023/12/29 11:48:57;;;;;;;1999.90;999.90;;;10.90;99.90;;;;;;5070125;28;20832;-69
2023/12/29 11:51:34;;;;;;;1999.90;999.90;;;11.00;99.90;;;;;;5041444;28;21169;-69
2023/12/29 11:54:02;;;;;;;1999.90;999.90;;;11.10;99.90;;;;;;5074993;28;20473;-70
2023/12/29 11:56:35;;;;;;;1999.90;999.90;;;11.00;99.90;;;;;;5069417;28;20435;-70
2023/12/29 11:59:17;;;;;;;1999.90;999.90;;;11.10;99.90;;;;;;5069265;28;20424;-70
2023/12/29 12:01:44;;;;;;;1999.90;999.90;;;11.10;99.90;;;;;;5069951;28;20434;-68
2023/12/29 12:04:37;;;;;;;1999.90;999.90;;;11.10;99.90;;;;;;5068586;28;20476;-69
2023/12/29 12:07:06;;;;;;;1999.90;999.90;;;11.10;99.90;;;;;;5071347;28;20462;-68